Aviation Digital Data Service (ADDS)

Output produced by METARs form (0122 UTC 26 November 2014)
found at http://aviationweather.gov/adds/metars/
 
KSAN 252320Z 2600/2706 32008KT P6SM SKC 
     FM260100 VRB04KT P6SM SKC 
     FM262100 31008KT P6SM SKC 
     FM270100 VRB04KT P6SM SKC